Terminal Aerodrome Forecast
Issued by NWS

Home | Current Version | Previous Version | Text Only | Print | Product List | Glossary On
Versions: 1 2 3 4 5 6 7 8 9 10 11 12
699
FTUS46 KSGX 170520
TAFONT
TAF
KONT 170520Z 1706/1812 VRB03KT P6SM FEW160 BKN250
     FM172100 28009KT P6SM SCT200
     FM180100 VRB04KT P6SM SCT200=

USA.gov is the U.S. government's official web portal to all federal, state and local government web resources and services.